Index of /observatory/weather/Observatory_weather

[ICO]NameLast modifiedSizeDescription

[DIR]Parent Directory  -  
[IMG]10MinAvgWindSpeed.gif14-Jun-2018 23:35 4.3K 
[TXT]2015.txt13-Mar-2018 12:42 11M 
[TXT]201705.txt21-Feb-2018 15:10 1.1M 
[TXT]201706.txt21-Feb-2018 15:10 351K 
[TXT]201707.txt21-Feb-2018 15:01 183K 
[IMG]AirDensity.gif14-Jun-2018 23:35 4.9K 
[IMG]Barometer.gif14-Jun-2018 23:35 5.7K 
[IMG]BarometerHistory.gif14-Jun-2018 23:35 9.5K 
[TXT]Current_Conditions.htm14-Jun-2018 23:35 2.7K 
[TXT]Current_Vantage_Pro.htm14-Jun-2018 23:35 13K 
[IMG]DCAMImage.jpg14-Jun-2018 23:35 75K 
[IMG]DewPoint.gif14-Jun-2018 23:35 5.3K 
[IMG]DewPointHistory.gif14-Jun-2018 23:35 10K 
[IMG]EMC.gif14-Jun-2018 23:35 4.2K 
[IMG]HeatIndex.gif14-Jun-2018 23:35 5.3K 
[IMG]HeatIndexHistory.gif14-Jun-2018 23:35 10K 
[IMG]HiWindSpeedHistory.gif14-Jun-2018 23:35 11K 
[IMG]InsideDewPoint.gif14-Jun-2018 23:35 4.4K 
[IMG]InsideDewPointHistory.gif14-Jun-2018 23:35 9.7K 
[IMG]InsideHeatIndex.gif14-Jun-2018 23:35 4.4K 
[IMG]InsideHeatIndexHistory.gif14-Jun-2018 23:35 10K 
[IMG]InsideHumidity.gif14-Jun-2018 23:35 5.5K 
[IMG]InsideHumidityHistory.gif14-Jun-2018 23:35 9.5K 
[IMG]InsideTemp.gif14-Jun-2018 23:35 5.4K 
[IMG]InsideTempHistory.gif14-Jun-2018 23:35 10K 
[IMG]MonthlyRain.gif14-Jun-2018 23:35 4.4K 
[TXT]Monthly_Vantage_Pro.htm14-Jun-2018 23:35 11K 
[TXT]Observatory_weather.htm14-Jun-2018 23:35 18K 
[IMG]OutsideHumidity.gif14-Jun-2018 23:35 5.5K 
[IMG]OutsideHumidityHistory.gif14-Jun-2018 23:35 10K 
[IMG]OutsideTemp.gif14-Jun-2018 23:35 5.4K 
[IMG]OutsideTempHistory.gif14-Jun-2018 23:35 10K 
[IMG]Rain.gif14-Jun-2018 23:35 4.1K 
[IMG]RainHistory.gif14-Jun-2018 23:35 9.7K 
[IMG]RainRate.gif14-Jun-2018 23:35 5.8K 
[IMG]RainRateHistory.gif14-Jun-2018 23:35 9.4K 
[IMG]RainStorm.gif14-Jun-2018 23:35 4.2K 
[IMG]ReceptionHistory.gif14-Jun-2018 23:35 13K 
[IMG]SchPhyAst_colour.jpg12-Sep-2013 17:33 24K 
[IMG]THW.gif14-Jun-2018 23:35 4.4K 
[TXT]Tag-List.htm14-Jun-2018 23:35 8.4K 
[IMG]WindChill.gif14-Jun-2018 23:35 4.5K 
[IMG]WindChillHistory.gif14-Jun-2018 23:35 10K 
[IMG]WindDirection.gif14-Jun-2018 23:35 4.6K 
[IMG]WindDirectionHistory.gif14-Jun-2018 23:35 9.7K 
[IMG]WindSpeed.gif14-Jun-2018 23:35 4.3K 
[IMG]WindSpeedHistory.gif14-Jun-2018 23:35 11K 
[IMG]YearlyRain.gif14-Jun-2018 23:35 4.7K 
[DIR]archive/21-Feb-2018 15:20 -  
[TXT]data.htm14-Jun-2018 23:35 348  
[VID]movie.avi19-Jun-2018 00:02 35M 
[IMG]obs_rollover.jpg16-Sep-2013 10:30 248K 
[IMG]quicklook_data_0.1h.png14-Dec-2017 17:15 38K 
[IMG]quicklook_data_1h.png14-Dec-2017 17:08 39K 
[IMG]quicklook_data_2h.png19-Jun-2018 00:02 127K 
[IMG]quicklook_data_12h.png19-Jun-2018 00:02 158K 
[IMG]quicklook_data_48h.png19-Jun-2018 00:02 105K 
[IMG]quicklook_data_96h.png19-Jun-2018 00:02 101K 
[TXT]radiation.txt24-Aug-2013 15:40 1.6M 
[TXT]radiation2012.txt14-Jun-2018 23:35 221K 
[DIR]reports/14-Feb-2018 13:55 -  
[IMG]test.png24-Nov-2017 13:58 77K 

Apache/2.2.14 (Ubuntu) Server at www.astro.gla.ac.uk Port 80